Boonton, New Jersey
Current Conditions -  °F | °C
As of 5:53 PM on Friday 28 Nov 2014 (Local Time) from KCDW Reporting Station
Clear Clear  
Wind Chill: 23°   Ceiling: Unl
Heat Index: 29°   Visibility: 10mi
Dew Point: 11°   Wind: 6mph
Humidity: 47%   Direction: 320°NW
Pressure: 30.24"   Gusts: NA
Location:  40.9°N, 74.41°W
Report Text: KCDW 282253Z AUTO 32005KT 10SM CLR M02/M12 A3024 RMK AO2 SLP246 T10171117 TSNO
Loading
Personal Weather Stations






























Interactive Weather Map New forecast layout! Learn more

10-Day Weather Forecast

Advertisements
Track Severe Weather on mobile